Trident, Italy

6:07 PM CET on November 20, 2019 (GMT +0100)
Brusago | | Change Station

Elev 3910 ft 46.17 °N, 11.29 °E | Updated 1 minute ago

Mostly Cloudy
Mostly Cloudy
38.7 °F
Feels Like 37 °F
N
3.1
Wind Variable Wind from South
Gusts 3.1 mph

Today
High -- | Low -- °F
--% Chance of Precip.
Yesterday
High -- | Low -- °F
Precip. -- in
Pressure 29.89 in
Visibility 6.2 miles
Clouds Few 4000 ft
Windchill 37 °F
Dew Point 37 °F
Humidity 95%
Rainfall 0.00 in
Snow Depth Not available.
7:22 AM 4:37 PM
Last Quarter, 41% visible
METAR LIPB 201650Z VRB02KT 9999 FEW040 06/05 Q1012
Pressure 29.89 in
Visibility 6.2 miles
Clouds Few 4000 ft
Windchill 37 °F
Dew Point 37 °F
Humidity 95%
Rainfall 0.00 in
Snow Depth Not available.
7:22 AM 4:37 PM
Last Quarter, 41% visible
METAR LIPB 201650Z VRB02KT 9999 FEW040 06/05 Q1012

Get Severe Weather Alerts

Thanks for signing up!

Be on the lookout for a verification email in your inbox.

You'll start receiving the daily forecast at 6 AM.

×

10-Day Weather Forecast

×

Almanac

Astronomy

Nov. 20, 2019 Rise Set
Actual Time
Civil Twilight
Nautical Twilight
Astronomical Twilight
Moon
Length of Visible Light
Length of Day
Tomorrow will be .
, % of the Moon is Illuminated

Today's Extremes

Country Highs Country Lows

Community

WunderPhotos

Category 6

Welcome to Category 6. This is the collective home for Weather Underground's featured writeups by Dr. Jeff Masters (right), Bob Henson (left), Chris Burt, and other regular contributors.

Nearby

Air Quality

  Air Quality AQ Index Pollutant
Not available.

Snow Depth

Station Depth Elevation

Earthquake Activity

City Distance Mag. Time & Date
Minimum magnitude displayed is 2.5.

Coastal Water Temperatures

Place Temperature

Stations

Nearby Weather Stations

Station Location Temp. Windchill Dew Point Humidity Wind Precip. Elev Updated Type